CPX716 Details

Departure: General Omar Torrijos International Airport (MPTO)
Arrival: Miami International Airport (KMIA)
Route: TASNO UL780 URSUS FLIPR6


Current Weather Information
MPTO 212200Z 10005KT 9999 FEW008 SCT016 SCT090 28/24 Q1008 NOSIG
KMIA 212153Z 11011KT 10SM FEW044 FEW060 FEW250 31/19 A2992 RMK AO2 SLP133 T03060189